createdAt,value
2018-04-25T00:02:09.874Z,35.40
2018-04-25T00:04:37.449Z,34.13
2018-04-25T00:07:05.026Z,28.63
2018-04-25T00:09:32.629Z,36.23
2018-04-25T00:12:00.199Z,27.20
2018-04-25T00:14:27.792Z,31.03
2018-04-25T00:16:55.417Z,41.10
2018-04-25T00:19:23.146Z,29.77
2018-04-25T00:21:50.690Z,37.93
2018-04-25T00:24:18.636Z,36.33
2018-04-25T00:26:46.376Z,31.20
2018-04-25T00:29:13.919Z,30.73
2018-04-25T00:31:41.595Z,32.43
2018-04-25T00:34:09.145Z,29.50
2018-04-25T00:36:36.724Z,29.20
2018-04-25T00:39:04.379Z,31.20
2018-04-25T00:41:31.942Z,31.50
2018-04-25T00:43:59.530Z,33.33
2018-04-25T00:46:27.085Z,30.93
2018-04-25T00:48:54.945Z,32.63
2018-04-25T00:51:22.495Z,30.33
2018-04-25T00:53:50.044Z,35.43
2018-04-25T00:56:17.625Z,35.63
2018-04-25T00:58:45.260Z,27.53
2018-04-25T01:01:12.818Z,34.50
2018-04-25T01:03:40.365Z,26.83
2018-04-25T01:06:08.165Z,29.47
2018-04-25T01:08:35.808Z,38.00
2018-04-25T01:11:03.506Z,35.40
2018-04-25T01:13:31.159Z,33.87
2018-04-25T01:15:58.859Z,31.10
2018-04-25T01:18:26.417Z,33.13
2018-04-25T01:20:57.547Z,28.30
2018-04-25T01:23:25.148Z,31.57
2018-04-25T01:26:00.083Z,26.47
2018-04-25T01:28:31.412Z,33.53
2018-04-25T01:31:02.043Z,27.73
2018-04-25T01:33:31.476Z,27.53
2018-04-25T01:36:01.878Z,33.47
2018-04-25T01:38:32.903Z,33.87
2018-04-25T01:41:15.345Z,35.07
2018-04-25T01:43:57.833Z,29.00
2018-04-25T01:46:36.260Z,33.43
2018-04-25T01:52:17.701Z,32.90
2018-04-25T01:54:57.141Z,33.60
2018-04-25T01:57:36.485Z,32.33
2018-04-25T02:00:15.850Z,32.80
2018-04-25T02:02:42.855Z,35.47
2018-04-25T02:05:10.478Z,33.13
2018-04-25T02:07:38.174Z,34.07
2018-04-25T02:10:05.722Z,29.87
2018-04-25T02:12:33.468Z,34.43
2018-04-25T02:15:01.036Z,27.00
2018-04-25T02:17:28.572Z,33.33
2018-04-25T02:19:56.472Z,28.13
2018-04-25T02:22:24.005Z,30.13
2018-04-25T02:24:51.554Z,29.80
2018-04-25T02:27:19.131Z,20.20
2018-04-25T02:29:46.824Z,21.03
2018-04-25T02:32:14.779Z,25.03
2018-04-25T02:34:42.314Z,24.43
2018-04-25T02:37:10.074Z,24.27
2018-04-25T02:39:37.789Z,21.77
2018-04-25T02:42:05.354Z,26.13
2018-04-25T02:44:33.059Z,27.20
2018-04-25T02:47:00.604Z,31.30
2018-04-25T02:49:28.388Z,29.10
2018-04-25T02:51:55.970Z,34.43
2018-04-25T02:54:23.536Z,36.93
2018-04-25T02:56:51.854Z,29.37
2018-04-25T02:59:19.411Z,28.23
2018-04-25T03:01:46.950Z,29.93
2018-04-25T03:04:14.517Z,31.47
2018-04-25T03:06:42.083Z,33.57
2018-04-25T03:09:09.787Z,25.30
2018-04-25T03:11:37.542Z,21.23
2018-04-25T03:14:05.240Z,22.10
2018-04-25T03:16:32.867Z,20.57
2018-04-25T03:19:00.700Z,16.83
2018-04-25T03:21:28.477Z,17.33
2018-04-25T03:23:56.046Z,13.83
2018-04-25T03:26:23.600Z,13.33
2018-04-25T03:28:51.353Z,14.30
2018-04-25T03:31:19.178Z,11.43
2018-04-25T03:33:46.743Z,10.80
2018-04-25T03:36:14.304Z,13.33
2018-04-25T03:38:41.833Z,11.10
2018-04-25T03:41:09.420Z,8.20
2018-04-25T03:43:36.994Z,11.20
2018-04-25T03:46:04.947Z,12.03
2018-04-25T03:48:32.492Z,9.17
2018-04-25T03:51:00.031Z,9.00
2018-04-25T03:53:27.596Z,9.43
2018-04-25T03:55:55.130Z,11.03
2018-04-25T03:58:22.666Z,8.07
2018-04-25T04:00:50.367Z,8.80
2018-04-25T04:03:17.893Z,9.77
2018-04-25T04:05:45.425Z,8.37
2018-04-25T04:08:13.085Z,16.83
2018-04-25T04:10:40.683Z,12.20
2018-04-25T04:13:08.220Z,6.37
2018-04-25T04:15:39.589Z,14.67
2018-04-25T04:18:08.631Z,16.70
2018-04-25T04:20:37.647Z,17.93
2018-04-25T04:23:05.198Z,17.33
2018-04-25T04:25:32.900Z,17.97
2018-04-25T04:28:00.559Z,15.47
2018-04-25T04:30:28.238Z,19.57
2018-04-25T04:32:55.935Z,19.20
2018-04-25T04:35:23.692Z,15.70
2018-04-25T04:37:51.278Z,16.70
2018-04-25T04:40:19.348Z,13.93
2018-04-25T04:42:46.885Z,15.63
2018-04-25T04:45:14.434Z,20.50
2018-04-25T04:47:42.282Z,15.43
2018-04-25T04:50:11.206Z,15.00
2018-04-25T04:52:38.751Z,15.43
2018-04-25T04:55:06.313Z,15.73
2018-04-25T04:57:33.899Z,12.40
2018-04-25T05:00:01.441Z,12.80
2018-04-25T05:02:29.373Z,12.50
2018-04-25T05:04:56.931Z,13.57
2018-04-25T05:07:24.493Z,13.17
2018-04-25T05:09:52.486Z,12.23
2018-04-25T05:12:20.167Z,14.53
2018-04-25T05:14:47.945Z,14.07
2018-04-25T05:17:15.516Z,16.37
2018-04-25T05:19:43.067Z,12.60
2018-04-25T05:22:10.999Z,13.50
2018-04-25T05:24:38.739Z,13.67
2018-04-25T05:27:06.308Z,13.57
2018-04-25T05:29:33.900Z,15.23
2018-04-25T05:32:01.515Z,12.23
2018-04-25T05:34:29.145Z,15.00
2018-04-25T05:36:56.930Z,13.83
2018-04-25T05:39:24.464Z,19.67
2018-04-25T05:41:52.503Z,15.00
2018-04-25T05:44:20.058Z,15.90
2018-04-25T05:46:47.624Z,21.37
2018-04-25T05:49:15.630Z,18.70
2018-04-25T05:51:43.222Z,15.70
2018-04-25T05:54:10.937Z,22.30
2018-04-25T05:56:38.556Z,19.30
2018-04-25T05:59:06.093Z,19.87
2018-04-25T06:01:33.652Z,31.43
2018-04-25T06:04:01.230Z,24.37
2018-04-25T06:06:28.817Z,20.90
2018-04-25T06:08:56.912Z,20.50
2018-04-25T06:11:24.528Z,18.23
2018-04-25T06:13:52.081Z,23.90
2018-04-25T06:16:20.167Z,17.53
2018-04-25T06:18:47.705Z,21.47
2018-04-25T06:21:15.255Z,19.20
2018-04-25T06:23:43.282Z,15.63
2018-04-25T06:26:10.847Z,17.33
2018-04-25T06:28:38.624Z,18.53
2018-04-25T06:31:06.637Z,13.80
2018-04-25T06:33:34.181Z,15.67
2018-04-25T06:36:01.736Z,16.33
2018-04-25T06:38:29.322Z,15.67
2018-04-25T06:40:56.876Z,14.73
2018-04-25T06:43:24.461Z,11.20
2018-04-25T06:45:52.148Z,11.73
2018-04-25T06:48:20.339Z,11.40
2018-04-25T06:50:47.873Z,6.67
2018-04-25T06:53:15.412Z,16.30
2018-04-25T06:55:42.973Z,14.33
2018-04-25T06:58:10.501Z,9.17
2018-04-25T07:00:38.093Z,9.00
2018-04-25T07:03:05.648Z,12.97
2018-04-25T07:05:33.202Z,6.30
2018-04-25T07:08:00.831Z,14.80
2018-04-25T07:10:28.544Z,4.10
2018-04-25T07:12:56.101Z,10.03
2018-04-25T07:15:23.646Z,10.00
2018-04-25T07:17:51.755Z,5.40
2018-04-25T07:20:19.403Z,12.47
2018-04-25T07:22:46.941Z,5.93
2018-04-25T07:25:14.546Z,6.40
2018-04-25T07:27:42.270Z,3.90
2018-04-25T07:30:09.995Z,7.27
2018-04-25T07:32:37.562Z,8.33
2018-04-25T07:35:05.215Z,3.90
2018-04-25T07:37:32.779Z,6.80
2018-04-25T07:40:00.327Z,4.87
2018-04-25T07:42:27.891Z,4.33
2018-04-25T07:44:55.647Z,5.87
2018-04-25T07:47:23.206Z,5.93
2018-04-25T07:49:50.742Z,6.20
2018-04-25T07:52:18.351Z,10.93
2018-04-25T07:54:45.920Z,4.60
2018-04-25T07:57:13.458Z,5.23
2018-04-25T07:59:41.005Z,3.93
2018-04-25T08:02:08.619Z,2.93
2018-04-25T08:04:36.149Z,7.83
2018-04-25T08:07:03.782Z,2.93
2018-04-25T08:09:31.327Z,6.70
2018-04-25T08:11:58.864Z,4.60
2018-04-25T08:14:38.538Z,8.60
2018-04-25T08:17:18.031Z,3.47
2018-04-25T08:19:57.473Z,5.57
2018-04-25T08:22:25.002Z,4.40
2018-04-25T08:24:53.065Z,3.43
2018-04-25T08:27:20.604Z,2.37
2018-04-25T08:29:48.315Z,4.50
2018-04-25T08:32:15.923Z,4.23
2018-04-25T08:34:43.453Z,1.27
2018-04-25T08:37:11.250Z,2.03
2018-04-25T08:39:38.948Z,5.10
2018-04-25T08:42:06.485Z,6.00
2018-04-25T08:44:34.244Z,2.67
2018-04-25T08:47:01.980Z,5.10
2018-04-25T08:49:29.729Z,3.73
2018-04-25T08:51:57.322Z,6.90
2018-04-25T08:54:25.286Z,3.27
2018-04-25T08:56:52.812Z,4.50
2018-04-25T08:59:20.471Z,6.30
2018-04-25T09:01:48.205Z,4.80
2018-04-25T09:04:16.050Z,4.00
2018-04-25T09:06:43.757Z,2.13
2018-04-25T09:09:11.330Z,6.40
2018-04-25T09:11:38.869Z,3.40
2018-04-25T09:14:06.992Z,6.83
2018-04-25T09:16:34.533Z,4.60
2018-04-25T09:19:02.235Z,5.80
2018-04-25T09:21:29.807Z,9.33
2018-04-25T09:23:57.382Z,3.67
2018-04-25T09:26:25.166Z,4.00
2018-04-25T09:28:52.731Z,4.67
2018-04-25T09:31:20.368Z,4.77
2018-04-25T09:33:47.914Z,6.63
2018-04-25T09:36:15.468Z,5.10
2018-04-25T09:38:43.239Z,7.90
2018-04-25T09:41:10.769Z,4.50
2018-04-25T09:43:38.387Z,4.70
2018-04-25T09:46:06.125Z,6.30
2018-04-25T09:48:33.667Z,6.30
2018-04-25T09:51:01.294Z,5.20
2018-04-25T09:53:29.087Z,6.13
2018-04-25T09:55:56.659Z,4.93
2018-04-25T09:58:24.196Z,4.37
2018-04-25T10:00:57.973Z,8.43
2018-04-25T10:03:25.527Z,3.10
2018-04-25T10:05:53.303Z,3.20
2018-04-25T10:08:20.988Z,2.50
2018-04-25T10:10:48.599Z,3.30
2018-04-25T10:13:16.222Z,3.10
2018-04-25T10:15:43.784Z,4.33
2018-04-25T10:18:11.336Z,4.30
2018-04-25T10:20:39.255Z,2.83
2018-04-25T10:23:06.817Z,6.00
2018-04-25T10:25:34.384Z,3.43
2018-04-25T10:28:01.965Z,7.23
2018-04-25T10:30:29.577Z,5.77
2018-04-25T10:32:57.106Z,5.00
2018-04-25T10:35:24.895Z,1.83
2018-04-25T10:37:52.470Z,6.13
2018-04-25T10:40:20.016Z,3.90
2018-04-25T10:42:47.828Z,3.83
2018-04-25T10:45:15.491Z,4.10
2018-04-25T10:47:43.061Z,3.43
2018-04-25T10:50:10.622Z,3.43
2018-04-25T10:52:38.317Z,3.10
2018-04-25T10:55:05.880Z,7.50
2018-04-25T10:57:33.418Z,4.37
2018-04-25T11:00:01.010Z,4.30
2018-04-25T11:02:28.604Z,5.03
2018-04-25T11:04:56.168Z,3.33
2018-04-25T11:07:23.896Z,3.43
2018-04-25T11:09:51.775Z,3.90
2018-04-25T11:12:19.306Z,5.57
2018-04-25T11:14:46.853Z,4.80
2018-04-25T11:17:14.558Z,5.10
2018-04-25T11:19:42.208Z,3.43
2018-04-25T11:22:09.888Z,6.00
2018-04-25T11:24:37.436Z,6.07
2018-04-25T11:27:04.981Z,4.47
2018-04-25T11:29:32.538Z,8.30
2018-04-25T11:32:00.137Z,5.10
2018-04-25T11:34:27.657Z,4.70
2018-04-25T11:36:55.196Z,6.07
2018-04-25T11:39:22.942Z,4.23
2018-04-25T11:41:50.478Z,6.93
2018-04-25T11:44:18.024Z,9.50
2018-04-25T11:46:45.585Z,3.77
2018-04-25T11:49:13.529Z,4.50
2018-04-25T11:51:41.061Z,6.40
2018-04-25T11:54:08.635Z,2.80
2018-04-25T11:56:36.238Z,4.90
2018-04-25T11:59:03.813Z,4.43
2018-04-25T12:01:31.502Z,2.33
2018-04-25T12:03:59.057Z,6.60
2018-04-25T12:06:26.641Z,3.60
2018-04-25T12:08:54.294Z,2.90
2018-04-25T12:11:21.833Z,5.83
2018-04-25T12:13:49.419Z,4.03
2018-04-25T12:16:16.983Z,4.10
2018-04-25T12:18:44.572Z,2.60
2018-04-25T12:21:12.114Z,4.33
2018-04-25T12:23:39.678Z,5.43
2018-04-25T12:26:07.208Z,3.83
2018-04-25T12:28:35.417Z,7.93
2018-04-25T12:31:02.959Z,3.97
2018-04-25T12:33:30.489Z,3.50
2018-04-25T12:35:58.206Z,3.77
2018-04-25T12:38:25.750Z,3.80
2018-04-25T12:40:53.290Z,5.70
2018-04-25T12:43:20.900Z,4.67
2018-04-25T12:45:48.461Z,7.27
2018-04-25T12:48:16.215Z,5.03
2018-04-25T12:50:43.784Z,6.40
2018-04-25T12:53:11.394Z,8.40
2018-04-25T12:55:38.946Z,9.10
2018-04-25T12:58:06.495Z,10.90
2018-04-25T13:00:34.193Z,6.70
2018-04-25T13:03:01.757Z,10.23
2018-04-25T13:05:29.301Z,9.27
2018-04-25T13:07:56.863Z,6.33
2018-04-25T13:10:24.578Z,3.70
2018-04-25T13:12:52.147Z,4.23
2018-04-25T13:15:19.695Z,5.83
2018-04-25T13:17:47.252Z,7.90
2018-04-25T13:20:15.069Z,9.73
2018-04-25T13:22:42.646Z,9.03
2018-04-25T13:25:10.357Z,6.33
2018-04-25T13:27:37.906Z,5.13
2018-04-25T13:30:05.622Z,4.93
2018-04-25T13:32:33.355Z,3.23
2018-04-25T13:35:00.899Z,4.27
2018-04-25T13:37:28.429Z,4.67
2018-04-25T13:39:55.982Z,8.43
2018-04-25T13:42:23.537Z,5.33
2018-04-25T13:44:51.103Z,4.17
2018-04-25T13:47:19.110Z,10.00
2018-04-25T13:49:46.872Z,7.90
2018-04-25T13:52:14.411Z,9.60
2018-04-25T13:54:42.229Z,8.13
2018-04-25T13:57:09.779Z,10.40
2018-04-25T13:59:37.519Z,9.90
2018-04-25T14:02:05.098Z,7.47
2018-04-25T14:04:32.633Z,5.40
2018-04-25T14:07:00.497Z,7.03
2018-04-25T14:09:28.277Z,6.60
2018-04-25T14:11:55.809Z,3.40
2018-04-25T14:14:23.374Z,13.13
2018-04-25T14:16:50.995Z,5.93
2018-04-25T14:19:18.620Z,10.30
2018-04-25T14:21:46.163Z,6.80
2018-04-25T14:24:13.922Z,11.37
2018-04-25T14:26:41.698Z,8.20
2018-04-25T14:29:09.424Z,9.17
2018-04-25T14:31:37.080Z,14.10
2018-04-25T14:34:04.805Z,12.97
2018-04-25T14:36:32.610Z,11.07
2018-04-25T14:39:00.154Z,14.23
2018-04-25T14:41:27.882Z,17.17
2018-04-25T14:43:55.634Z,13.30
2018-04-25T14:46:23.173Z,11.57
2018-04-25T14:48:50.986Z,15.17
2018-04-25T14:51:18.532Z,16.93
2018-04-25T14:53:46.116Z,11.77
2018-04-25T14:56:13.661Z,12.83
2018-04-25T14:58:41.286Z,12.13
2018-04-25T15:01:08.851Z,12.50
2018-04-25T15:03:36.393Z,16.83
2018-04-25T15:06:05.026Z,17.73
2018-04-25T15:08:32.650Z,15.17
2018-04-25T15:11:00.477Z,19.23
2018-04-25T15:13:28.026Z,13.53
2018-04-25T15:15:55.613Z,16.07
2018-04-25T15:18:23.144Z,11.10
2018-04-25T15:20:51.098Z,8.53
2018-04-25T15:23:18.634Z,6.77
2018-04-25T15:25:46.183Z,5.20
2018-04-25T15:28:14.127Z,2.40
2018-04-25T15:30:41.837Z,3.30
2018-04-25T15:33:09.387Z,2.60
2018-04-25T15:35:36.961Z,3.43
2018-04-25T15:38:04.541Z,2.60
2018-04-25T15:40:32.078Z,3.50
2018-04-25T15:42:59.608Z,2.27
2018-04-25T15:45:27.388Z,2.60
2018-04-25T15:47:55.199Z,10.33
2018-04-25T15:50:22.919Z,3.50
2018-04-25T15:52:51.063Z,5.73
2018-04-25T15:55:18.608Z,4.83
2018-04-25T15:57:46.154Z,8.00
2018-04-25T16:00:13.880Z,4.00
2018-04-25T16:02:41.423Z,6.53
2018-04-25T16:05:09.141Z,6.70
2018-04-25T16:07:36.809Z,3.90
2018-04-25T16:10:04.555Z,9.83
2018-04-25T16:12:32.529Z,5.13
2018-04-25T16:15:00.071Z,3.67
2018-04-25T16:17:27.621Z,5.30
2018-04-25T16:19:55.192Z,5.20
2018-04-25T16:22:22.913Z,4.80
2018-04-25T16:24:50.643Z,3.40
2018-04-25T16:27:18.237Z,5.37
2018-04-25T16:29:45.939Z,5.13
2018-04-25T16:32:13.542Z,5.73
2018-04-25T16:34:41.088Z,4.53
2018-04-25T16:37:08.627Z,5.53
2018-04-25T16:39:36.244Z,5.17
2018-04-25T16:42:03.785Z,5.30
2018-04-25T16:44:31.498Z,6.20
2018-04-25T16:46:59.230Z,7.37
2018-04-25T16:49:26.996Z,4.33
2018-04-25T16:51:54.566Z,6.03
2018-04-25T16:54:22.138Z,8.00
2018-04-25T16:56:49.689Z,6.90
2018-04-25T16:59:17.279Z,3.17
2018-04-25T17:01:44.862Z,2.60
2018-04-25T17:04:12.424Z,4.33
2018-04-25T17:06:40.207Z,4.20
2018-04-25T17:09:07.758Z,3.90
2018-04-25T17:11:35.315Z,6.93
2018-04-25T17:14:02.883Z,4.70
2018-04-25T17:16:30.433Z,4.20
2018-04-25T17:18:57.975Z,11.73
2018-04-25T17:21:25.733Z,3.97
2018-04-25T17:23:53.482Z,9.63
2018-04-25T17:26:21.013Z,5.87
2018-04-25T17:28:48.617Z,5.60
2018-04-25T17:31:16.418Z,6.90
2018-04-25T17:33:44.148Z,3.57
2018-04-25T17:36:11.700Z,3.10
2018-04-25T17:38:39.247Z,4.00
2018-04-25T17:41:06.837Z,5.23
2018-04-25T17:43:34.814Z,7.70
2018-04-25T17:46:02.340Z,7.33
2018-04-25T17:48:29.869Z,4.67
2018-04-25T17:50:57.475Z,3.40
2018-04-25T17:53:25.026Z,6.90
2018-04-25T17:55:52.901Z,6.20
2018-04-25T17:58:20.435Z,4.83
2018-04-25T18:00:47.986Z,3.20
2018-04-25T18:03:15.633Z,13.60
2018-04-25T18:05:43.125Z,4.97
2018-04-25T18:08:10.869Z,5.10
2018-04-25T18:10:38.647Z,4.10
2018-04-25T18:13:06.320Z,4.83
2018-04-25T18:15:33.863Z,3.97
2018-04-25T18:18:01.426Z,7.30
2018-04-25T18:20:28.966Z,5.67
2018-04-25T18:22:56.521Z,6.00
2018-04-25T18:25:24.115Z,4.83
2018-04-25T18:27:51.826Z,7.13
2018-04-25T18:30:19.379Z,8.33
2018-04-25T18:32:48.913Z,6.00
2018-04-25T18:35:16.739Z,4.03
2018-04-25T18:37:44.315Z,5.70
2018-04-25T18:40:12.314Z,7.20
2018-04-25T18:42:39.881Z,8.03
2018-04-25T18:45:07.462Z,8.67
2018-04-25T18:47:35.440Z,10.50
2018-04-25T18:50:02.998Z,4.07
2018-04-25T18:52:30.548Z,6.57
2018-04-25T18:54:58.121Z,8.93
2018-04-25T18:57:25.860Z,8.40
2018-04-25T18:59:53.394Z,6.03
2018-04-25T19:02:21.128Z,16.50
2018-04-25T19:04:48.950Z,10.47
2018-04-25T19:07:16.829Z,15.50
2018-04-25T19:09:44.409Z,6.90
2018-04-25T19:12:11.946Z,9.10
2018-04-25T19:14:39.835Z,8.30
2018-04-25T19:17:07.631Z,13.20
2018-04-25T19:19:35.406Z,7.40
2018-04-25T19:22:02.976Z,9.80
2018-04-25T19:24:30.701Z,7.40
2018-04-25T19:26:58.238Z,8.77
2018-04-25T19:29:25.827Z,6.83
2018-04-25T19:31:53.810Z,5.00
2018-04-25T19:34:21.350Z,12.97
2018-04-25T19:36:49.140Z,12.50
2018-04-25T19:39:16.726Z,7.80
2018-04-25T19:41:44.262Z,6.43
2018-04-25T19:44:11.851Z,12.17
2018-04-25T19:46:39.886Z,9.40
2018-04-25T19:49:07.409Z,9.77
2018-04-25T19:51:35.087Z,6.97
2018-04-25T19:54:02.685Z,9.73
2018-04-25T19:56:31.150Z,12.77
2018-04-25T19:58:58.703Z,9.23
2018-04-25T20:01:26.734Z,9.67
2018-04-25T20:03:54.330Z,11.30
2018-04-25T20:06:21.891Z,12.87
2018-04-25T20:08:49.639Z,8.17
2018-04-25T20:11:17.317Z,11.53
2018-04-25T20:13:45.169Z,11.93
2018-04-25T20:16:12.657Z,8.53
2018-04-25T20:18:40.193Z,10.90
2018-04-25T20:21:07.903Z,9.40
2018-04-25T20:23:35.451Z,8.47
2018-04-25T20:26:03.261Z,8.83
2018-04-25T20:28:31.047Z,8.97
2018-04-25T20:30:58.819Z,9.30
2018-04-25T20:33:26.357Z,14.83
2018-04-25T20:35:53.951Z,10.70
2018-04-25T20:38:21.514Z,10.70
2018-04-25T20:40:49.045Z,13.80
2018-04-25T20:43:17.002Z,9.93
2018-04-25T20:45:44.536Z,11.70
2018-04-25T20:48:12.068Z,14.00
2018-04-25T20:50:39.651Z,16.57
2018-04-25T20:53:07.218Z,12.90
2018-04-25T20:55:34.772Z,14.77
2018-04-25T20:58:02.422Z,13.50
2018-04-25T21:00:29.954Z,9.43
2018-04-25T21:02:57.693Z,15.33
2018-04-25T21:05:25.224Z,15.90
2018-04-25T21:07:52.761Z,14.20
2018-04-25T21:10:20.600Z,15.17
2018-04-25T21:12:48.168Z,15.63
2018-04-25T21:15:15.841Z,14.27
2018-04-25T21:17:43.403Z,18.33
2018-04-25T21:20:10.954Z,14.00
2018-04-25T21:22:38.515Z,12.93
2018-04-25T21:25:06.055Z,9.00
2018-04-25T21:27:33.843Z,14.47
2018-04-25T21:30:01.412Z,13.07
2018-04-25T21:32:28.958Z,13.70
2018-04-25T21:34:56.514Z,14.37
2018-04-25T21:37:24.064Z,17.10
2018-04-25T21:39:51.653Z,15.73
2018-04-25T21:42:19.182Z,11.63
2018-04-25T21:44:46.741Z,12.80
2018-04-25T21:47:14.269Z,10.10
2018-04-25T21:49:41.951Z,16.27
2018-04-25T21:52:09.656Z,13.90
2018-04-25T21:54:37.537Z,18.00
2018-04-25T21:57:05.311Z,10.73
2018-04-25T21:59:32.865Z,20.47
2018-04-25T22:02:00.439Z,13.03
2018-04-25T22:04:28.252Z,18.50
2018-04-25T22:06:55.828Z,24.37
2018-04-25T22:09:23.397Z,15.83
2018-04-25T22:11:50.955Z,16.13
2018-04-25T22:14:18.656Z,20.90
2018-04-25T22:16:46.203Z,20.17
2018-04-25T22:19:13.741Z,19.67
2018-04-25T22:21:41.501Z,15.70
2018-04-25T22:24:09.052Z,19.73
2018-04-25T22:26:36.660Z,18.33
2018-04-25T22:29:04.210Z,21.30
2018-04-25T22:31:31.807Z,35.60
2018-04-25T22:33:59.399Z,36.77
2018-04-25T22:36:26.995Z,15.50
2018-04-25T22:38:54.522Z,22.13
2018-04-25T22:41:22.415Z,19.60
2018-04-25T22:43:50.093Z,18.20
2018-04-25T22:46:17.655Z,29.27
2018-04-25T22:48:45.596Z,20.97
2018-04-25T22:51:13.299Z,14.10
2018-04-25T22:53:40.992Z,19.33
2018-04-25T22:56:08.799Z,17.17
2018-04-25T22:58:36.329Z,15.03
2018-04-25T23:01:03.871Z,24.90
2018-04-25T23:03:31.421Z,22.67
2018-04-25T23:05:59.202Z,13.33
2018-04-25T23:08:26.749Z,17.20
2018-04-25T23:10:54.478Z,13.70
2018-04-25T23:18:11.744Z,19.17
2018-04-25T23:20:39.272Z,16.90
2018-04-25T23:23:06.835Z,19.30
2018-04-25T23:25:34.407Z,20.00
2018-04-25T23:28:01.945Z,10.93
2018-04-25T23:30:29.501Z,29.40
2018-04-25T23:32:57.182Z,16.43
2018-04-25T23:35:24.965Z,10.73
2018-04-25T23:37:52.501Z,17.67
2018-04-25T23:40:20.066Z,23.03
2018-04-25T23:42:47.651Z,15.00
2018-04-25T23:45:15.208Z,21.33
2018-04-25T23:47:42.764Z,29.80
2018-04-25T23:50:10.531Z,12.47
2018-04-25T23:52:38.079Z,21.70
2018-04-25T23:55:05.799Z,17.10
2018-04-25T23:57:33.383Z,20.97
